AAL1379 KCLT-KMCO
Flight info
| Callsign | AAL1379 |
|---|---|
| Flight time | 1h 6m |
| Altitude | 36000 |
| Route | ICONS5 NOOKS WURFL Q83 ROYCO Q85 LPERD GTOUT1 |
| Aircraft | B738/M-SDE2E3FGHIRWXY/LB1 |
Departure
| Time | 2026-04-26 20:50 |
|---|---|
| Airport | Charlotte Douglas International Airport (KCLT) |
Arrival
| Time | 2026-04-26 21:56 |
|---|---|
| Airport | Orlando International Airport (KMCO) |
| Time | Latitude | Longitude | Altitude | Speed | Heading |
|---|---|---|---|---|---|
| 2026-04-26 20:36 | 35.21793 | -80.94598 | 731 ft | 0 kts | 91° |
| 2026-04-26 20:41 | 35.21793 | -80.94600 | 731 ft | 1 kts | 91° |
| 2026-04-26 20:41 | 35.21793 | -80.94630 | 731 ft | 4 kts | 91° |
| 2026-04-26 20:41 | 35.21793 | -80.94657 | 731 ft | 4 kts | 95° |
| 2026-04-26 20:42 | 35.21801 | -80.94685 | 731 ft | 4 kts | 139° |
| 2026-04-26 20:42 | 35.21824 | -80.94698 | 731 ft | 4 kts | 174° |
| 2026-04-26 20:42 | 35.21833 | -80.94699 | 731 ft | 0 kts | 177° |
| 2026-04-26 20:44 | 35.21826 | -80.94702 | 731 ft | 3 kts | 202° |
| 2026-04-26 20:44 | 35.21790 | -80.94727 | 731 ft | 9 kts | 211° |
| 2026-04-26 20:44 | 35.21718 | -80.94737 | 731 ft | 1 kts | 174° |
| 2026-04-26 20:45 | 35.21694 | -80.94731 | 731 ft | 2 kts | 170° |
| 2026-04-26 20:45 | 35.21685 | -80.94730 | 731 ft | 0 kts | 176° |
| 2026-04-26 20:46 | 35.21654 | -80.94732 | 731 ft | 8 kts | 196° |
| 2026-04-26 20:46 | 35.21617 | -80.94778 | 731 ft | 8 kts | 262° |
| 2026-04-26 20:46 | 35.21609 | -80.94862 | 732 ft | 12 kts | 262° |
| 2026-04-26 20:47 | 35.21582 | -80.94924 | 730 ft | 8 kts | 201° |
| 2026-04-26 20:47 | 35.21532 | -80.94925 | 732 ft | 14 kts | 178° |
| 2026-04-26 20:47 | 35.21376 | -80.94964 | 732 ft | 18 kts | 227° |
| 2026-04-26 20:47 | 35.21224 | -80.94987 | 732 ft | 28 kts | 175° |
| 2026-04-26 20:48 | 35.20988 | -80.94966 | 727 ft | 39 kts | 177° |
| 2026-04-26 20:48 | 35.20722 | -80.94944 | 732 ft | 36 kts | 176° |
| 2026-04-26 20:48 | 35.20481 | -80.94922 | 732 ft | 34 kts | 175° |
| 2026-04-26 20:48 | 35.20226 | -80.94901 | 732 ft | 40 kts | 175° |
| 2026-04-26 20:49 | 35.20016 | -80.94938 | 732 ft | 26 kts | 256° |
| 2026-04-26 20:49 | 35.20086 | -80.95084 | 735 ft | 29 kts | 351° |
| 2026-04-26 20:49 | 35.20526 | -80.95127 | 739 ft | 97 kts | 355° |
| 2026-04-26 20:49 | 35.21414 | -80.95193 | 739 ft | 156 kts | 357° |
| 2026-04-26 20:50 | 35.22573 | -80.95332 | 1167 ft | 171 kts | 356° |
| 2026-04-26 20:50 | 35.23750 | -80.95595 | 1931 ft | 175 kts | 335° |
| 2026-04-26 20:50 | 35.24561 | -80.96815 | 2385 ft | 211 kts | 287° |
| 2026-04-26 20:50 | 35.24468 | -80.98700 | 2730 ft | 240 kts | 245° |
| 2026-04-26 20:51 | 35.23427 | -81.00364 | 3267 ft | 257 kts | 215° |
| 2026-04-26 20:51 | 35.21766 | -81.01088 | 3819 ft | 262 kts | 179° |
| 2026-04-26 20:51 | 35.19887 | -81.00910 | 4286 ft | 279 kts | 169° |
| 2026-04-26 20:51 | 35.17928 | -81.00590 | 5126 ft | 289 kts | 170° |
| 2026-04-26 20:52 | 35.15910 | -81.00279 | 6055 ft | 291 kts | 172° |
| 2026-04-26 20:52 | 35.13925 | -81.00006 | 7000 ft | 293 kts | 173° |
| 2026-04-26 20:52 | 35.11867 | -80.99750 | 8059 ft | 287 kts | 173° |
| 2026-04-26 20:52 | 35.09872 | -80.99530 | 8969 ft | 292 kts | 173° |
| 2026-04-26 20:53 | 35.07821 | -80.99314 | 9701 ft | 299 kts | 173° |
| 2026-04-26 20:53 | 35.05736 | -80.99110 | 10458 ft | 304 kts | 173° |
| 2026-04-26 20:53 | 35.03553 | -80.98902 | 10726 ft | 327 kts | 172° |
| 2026-04-26 20:53 | 35.01198 | -80.98683 | 10982 ft | 348 kts | 173° |
| 2026-04-26 20:54 | 34.98744 | -80.98453 | 11543 ft | 355 kts | 173° |
| 2026-04-26 20:54 | 34.96313 | -80.98231 | 12337 ft | 355 kts | 173° |
| 2026-04-26 20:54 | 34.93835 | -80.98005 | 12988 ft | 361 kts | 173° |
| 2026-04-26 20:54 | 34.91315 | -80.97773 | 13685 ft | 364 kts | 173° |
| 2026-04-26 20:55 | 34.88774 | -80.97541 | 14300 ft | 369 kts | 175° |
| 2026-04-26 20:55 | 34.86195 | -80.97307 | 14856 ft | 374 kts | 175° |
| 2026-04-26 20:55 | 34.83589 | -80.97069 | 15542 ft | 376 kts | 176° |
| 2026-04-26 20:55 | 34.80976 | -80.96828 | 16209 ft | 379 kts | 176° |
| 2026-04-26 20:56 | 34.78314 | -80.96652 | 16747 ft | 385 kts | 180° |
| 2026-04-26 20:56 | 34.75625 | -80.96703 | 17382 ft | 388 kts | 183° |
| 2026-04-26 20:56 | 34.72905 | -80.96832 | 17914 ft | 394 kts | 184° |
| 2026-04-26 20:56 | 34.70157 | -80.96968 | 18472 ft | 398 kts | 184° |
| 2026-04-26 20:57 | 34.67375 | -80.97083 | 19007 ft | 401 kts | 184° |
| 2026-04-26 20:57 | 34.64582 | -80.97177 | 19557 ft | 403 kts | 184° |
| 2026-04-26 20:57 | 34.61771 | -80.97264 | 20098 ft | 405 kts | 185° |
| 2026-04-26 20:57 | 34.58990 | -80.97436 | 20605 ft | 407 kts | 187° |
| 2026-04-26 20:58 | 34.56160 | -80.97697 | 21129 ft | 409 kts | 188° |
| 2026-04-26 20:58 | 34.53317 | -80.97989 | 21690 ft | 411 kts | 188° |
| 2026-04-26 20:58 | 34.50460 | -80.98285 | 22273 ft | 413 kts | 188° |
| 2026-04-26 20:58 | 34.47582 | -80.98575 | 22839 ft | 416 kts | 188° |
| 2026-04-26 20:59 | 34.44693 | -80.98858 | 23394 ft | 419 kts | 189° |
| 2026-04-26 20:59 | 34.41734 | -80.99141 | 23879 ft | 422 kts | 189° |
| 2026-04-26 20:59 | 34.38839 | -80.99414 | 24248 ft | 425 kts | 189° |
| 2026-04-26 20:59 | 34.35881 | -80.99690 | 24631 ft | 428 kts | 189° |
| 2026-04-26 21:00 | 34.32904 | -80.99968 | 25001 ft | 430 kts | 189° |
| 2026-04-26 21:00 | 34.29907 | -81.00246 | 25363 ft | 433 kts | 189° |
| 2026-04-26 21:00 | 34.26895 | -81.00526 | 25739 ft | 436 kts | 189° |
| 2026-04-26 21:00 | 34.23860 | -81.00809 | 26113 ft | 439 kts | 189° |
| 2026-04-26 21:01 | 34.20810 | -81.01093 | 26465 ft | 441 kts | 189° |
| 2026-04-26 21:01 | 34.17741 | -81.01378 | 26829 ft | 444 kts | 189° |
| 2026-04-26 21:01 | 34.14653 | -81.01665 | 27146 ft | 446 kts | 190° |
| 2026-04-26 21:01 | 34.11558 | -81.01953 | 27547 ft | 447 kts | 190° |
| 2026-04-26 21:02 | 34.08442 | -81.02242 | 27906 ft | 449 kts | 190° |
| 2026-04-26 21:02 | 34.05320 | -81.02534 | 28205 ft | 452 kts | 191° |
| 2026-04-26 21:02 | 34.02170 | -81.02827 | 28492 ft | 455 kts | 190° |
| 2026-04-26 21:02 | 33.99003 | -81.03118 | 28806 ft | 458 kts | 190° |
| 2026-04-26 21:03 | 33.95807 | -81.03280 | 29121 ft | 463 kts | 187° |
| 2026-04-26 21:03 | 33.92573 | -81.03283 | 29416 ft | 466 kts | 185° |
| 2026-04-26 21:03 | 33.89316 | -81.03225 | 29686 ft | 469 kts | 185° |
| 2026-04-26 21:03 | 33.86043 | -81.03150 | 29951 ft | 471 kts | 185° |
| 2026-04-26 21:04 | 33.82762 | -81.03081 | 30203 ft | 473 kts | 185° |
| 2026-04-26 21:04 | 33.79460 | -81.03024 | 30393 ft | 476 kts | 185° |
| 2026-04-26 21:04 | 33.76134 | -81.02979 | 30594 ft | 478 kts | 185° |
| 2026-04-26 21:04 | 33.72808 | -81.02943 | 30854 ft | 479 kts | 185° |
| 2026-04-26 21:05 | 33.69479 | -81.02910 | 31163 ft | 478 kts | 186° |
| 2026-04-26 21:05 | 33.66153 | -81.02880 | 31449 ft | 478 kts | 186° |
| 2026-04-26 21:05 | 33.62824 | -81.02851 | 31688 ft | 479 kts | 186° |
| 2026-04-26 21:05 | 33.59482 | -81.02823 | 31887 ft | 481 kts | 186° |
| 2026-04-26 21:06 | 33.56177 | -81.02795 | 32140 ft | 481 kts | 186° |
| 2026-04-26 21:06 | 33.52831 | -81.02766 | 32426 ft | 481 kts | 186° |
| 2026-04-26 21:06 | 33.49480 | -81.02736 | 32697 ft | 481 kts | 186° |
| 2026-04-26 21:06 | 33.46129 | -81.02706 | 32953 ft | 482 kts | 186° |
| 2026-04-26 21:07 | 33.42768 | -81.02676 | 33197 ft | 483 kts | 186° |
| 2026-04-26 21:07 | 33.39409 | -81.02646 | 33457 ft | 483 kts | 186° |
| 2026-04-26 21:07 | 33.36045 | -81.02616 | 33696 ft | 483 kts | 186° |
| 2026-04-26 21:07 | 33.32684 | -81.02586 | 33938 ft | 483 kts | 186° |
| 2026-04-26 21:08 | 33.29323 | -81.02556 | 34182 ft | 483 kts | 186° |
| 2026-04-26 21:08 | 33.25968 | -81.02525 | 34426 ft | 482 kts | 186° |
| 2026-04-26 21:08 | 33.22619 | -81.02495 | 34680 ft | 481 kts | 186° |
| 2026-04-26 21:08 | 33.19281 | -81.02465 | 34925 ft | 480 kts | 186° |
| 2026-04-26 21:09 | 33.15943 | -81.02435 | 35158 ft | 479 kts | 186° |
| 2026-04-26 21:09 | 33.12611 | -81.02406 | 35397 ft | 478 kts | 186° |
| 2026-04-26 21:09 | 33.09294 | -81.02377 | 35639 ft | 477 kts | 186° |
| 2026-04-26 21:09 | 33.05975 | -81.02348 | 35859 ft | 476 kts | 186° |
| 2026-04-26 21:10 | 33.02656 | -81.02319 | 35949 ft | 478 kts | 186° |
| 2026-04-26 21:10 | 32.96036 | -81.02263 | 35941 ft | 478 kts | 186° |
| 2026-04-26 21:11 | 32.89409 | -81.02202 | 35947 ft | 474 kts | 186° |
| 2026-04-26 21:11 | 32.82828 | -81.02144 | 35907 ft | 471 kts | 186° |
| 2026-04-26 21:12 | 32.76291 | -81.02088 | 35940 ft | 469 kts | 186° |
| 2026-04-26 21:12 | 32.69762 | -81.02034 | 35937 ft | 469 kts | 186° |
| 2026-04-26 21:13 | 32.63234 | -81.01980 | 35956 ft | 470 kts | 186° |
| 2026-04-26 21:13 | 32.56677 | -81.01926 | 35897 ft | 471 kts | 186° |
| 2026-04-26 21:14 | 32.50117 | -81.01899 | 35932 ft | 471 kts | 187° |
| 2026-04-26 21:14 | 32.43558 | -81.02018 | 35942 ft | 472 kts | 188° |
| 2026-04-26 21:15 | 32.38094 | -81.02130 | 35936 ft | 473 kts | 187° |
| 2026-04-26 21:15 | 32.31493 | -81.02245 | 35936 ft | 475 kts | 187° |
| 2026-04-26 21:16 | 32.24874 | -81.02351 | 35920 ft | 478 kts | 188° |
| 2026-04-26 21:16 | 32.18226 | -81.02465 | 35913 ft | 478 kts | 188° |
| 2026-04-26 21:17 | 32.11586 | -81.02582 | 35880 ft | 477 kts | 188° |
| 2026-04-26 21:17 | 32.04962 | -81.02703 | 35870 ft | 476 kts | 188° |
| 2026-04-26 21:18 | 31.98350 | -81.02824 | 35864 ft | 474 kts | 189° |
| 2026-04-26 21:18 | 31.91802 | -81.03004 | 35874 ft | 473 kts | 189° |
| 2026-04-26 21:19 | 31.85227 | -81.03208 | 35891 ft | 473 kts | 189° |
| 2026-04-26 21:19 | 31.78644 | -81.03406 | 35897 ft | 473 kts | 189° |
| 2026-04-26 21:20 | 31.72060 | -81.03601 | 35896 ft | 474 kts | 188° |
| 2026-04-26 21:20 | 31.65449 | -81.03795 | 35922 ft | 475 kts | 188° |
| 2026-04-26 21:21 | 31.58933 | -81.04533 | 35915 ft | 464 kts | 202° |
| 2026-04-26 21:21 | 31.53055 | -81.07243 | 35935 ft | 448 kts | 217° |
| 2026-04-26 21:22 | 31.47582 | -81.10708 | 35907 ft | 451 kts | 217° |
| 2026-04-26 21:22 | 31.42021 | -81.14162 | 35923 ft | 454 kts | 216° |
| 2026-04-26 21:23 | 31.33572 | -81.19259 | 35930 ft | 457 kts | 215° |
| 2026-04-26 21:23 | 31.27879 | -81.22618 | 35920 ft | 458 kts | 215° |
| 2026-04-26 21:24 | 31.22189 | -81.25985 | 35883 ft | 458 kts | 214° |
| 2026-04-26 21:24 | 31.15997 | -81.28229 | 35910 ft | 477 kts | 195° |
| 2026-04-26 21:25 | 31.09288 | -81.28435 | 35914 ft | 484 kts | 186° |
| 2026-04-26 21:25 | 31.02560 | -81.28310 | 35917 ft | 482 kts | 186° |
| 2026-04-26 21:26 | 30.99234 | -81.28257 | 35808 ft | 476 kts | 186° |
| 2026-04-26 21:26 | 30.95934 | -81.28252 | 35443 ft | 470 kts | 187° |
| 2026-04-26 21:26 | 30.92686 | -81.28205 | 35093 ft | 470 kts | 180° |
| 2026-04-26 21:26 | 30.89431 | -81.27655 | 34686 ft | 468 kts | 183° |
| 2026-04-26 21:27 | 30.86233 | -81.27666 | 34321 ft | 454 kts | 192° |
| 2026-04-26 21:27 | 30.83094 | -81.27909 | 33958 ft | 451 kts | 191° |
| 2026-04-26 21:27 | 30.79960 | -81.28078 | 33532 ft | 449 kts | 189° |
| 2026-04-26 21:27 | 30.76844 | -81.28154 | 33135 ft | 447 kts | 188° |
| 2026-04-26 21:28 | 30.73738 | -81.28167 | 32750 ft | 445 kts | 187° |
| 2026-04-26 21:28 | 30.70694 | -81.28151 | 32374 ft | 441 kts | 187° |
| 2026-04-26 21:28 | 30.67633 | -81.28129 | 32004 ft | 438 kts | 186° |
| 2026-04-26 21:28 | 30.64595 | -81.28112 | 31642 ft | 434 kts | 186° |
| 2026-04-26 21:29 | 30.61594 | -81.28100 | 31305 ft | 430 kts | 186° |
| 2026-04-26 21:29 | 30.58615 | -81.28040 | 30978 ft | 427 kts | 183° |
| 2026-04-26 21:29 | 30.55670 | -81.27856 | 30744 ft | 421 kts | 182° |
| 2026-04-26 21:29 | 30.52766 | -81.27620 | 30495 ft | 416 kts | 181° |
| 2026-04-26 21:30 | 30.49901 | -81.27374 | 30238 ft | 410 kts | 181° |
| 2026-04-26 21:30 | 30.47075 | -81.27134 | 29991 ft | 404 kts | 181° |
| 2026-04-26 21:30 | 30.44291 | -81.26902 | 29715 ft | 401 kts | 181° |
| 2026-04-26 21:30 | 30.41497 | -81.26677 | 29368 ft | 405 kts | 181° |
| 2026-04-26 21:31 | 30.38682 | -81.26459 | 28974 ft | 404 kts | 181° |
| 2026-04-26 21:31 | 30.35888 | -81.26251 | 28621 ft | 400 kts | 181° |
| 2026-04-26 21:31 | 30.33120 | -81.26042 | 28241 ft | 397 kts | 181° |
| 2026-04-26 21:31 | 30.30375 | -81.25836 | 27871 ft | 393 kts | 181° |
| 2026-04-26 21:32 | 30.27658 | -81.25643 | 27517 ft | 390 kts | 181° |
| 2026-04-26 21:32 | 30.24954 | -81.25447 | 27160 ft | 387 kts | 181° |
| 2026-04-26 21:32 | 30.22272 | -81.25249 | 26805 ft | 385 kts | 181° |
| 2026-04-26 21:32 | 30.19612 | -81.25050 | 26458 ft | 382 kts | 181° |
| 2026-04-26 21:33 | 30.17001 | -81.24855 | 26118 ft | 379 kts | 181° |
| 2026-04-26 21:33 | 30.14375 | -81.24659 | 25773 ft | 377 kts | 181° |
| 2026-04-26 21:33 | 30.11769 | -81.24464 | 25429 ft | 374 kts | 181° |
| 2026-04-26 21:33 | 30.09172 | -81.24271 | 25079 ft | 372 kts | 180° |
| 2026-04-26 21:34 | 30.06599 | -81.24079 | 24747 ft | 370 kts | 180° |
| 2026-04-26 21:34 | 30.04039 | -81.23889 | 24409 ft | 368 kts | 180° |
| 2026-04-26 21:34 | 30.01493 | -81.23700 | 24068 ft | 366 kts | 180° |
| 2026-04-26 21:34 | 29.98963 | -81.23512 | 23735 ft | 364 kts | 180° |
| 2026-04-26 21:35 | 29.96441 | -81.23325 | 23380 ft | 362 kts | 180° |
| 2026-04-26 21:35 | 29.93933 | -81.23139 | 22977 ft | 360 kts | 180° |
| 2026-04-26 21:35 | 29.91438 | -81.22954 | 22615 ft | 358 kts | 180° |
| 2026-04-26 21:35 | 29.88992 | -81.22772 | 22266 ft | 355 kts | 180° |
| 2026-04-26 21:36 | 29.86537 | -81.22590 | 21928 ft | 353 kts | 180° |
| 2026-04-26 21:36 | 29.84100 | -81.22409 | 21595 ft | 350 kts | 180° |
| 2026-04-26 21:36 | 29.81673 | -81.22230 | 21258 ft | 348 kts | 180° |
| 2026-04-26 21:36 | 29.79268 | -81.22052 | 20924 ft | 345 kts | 180° |
| 2026-04-26 21:37 | 29.76882 | -81.21875 | 20610 ft | 343 kts | 180° |
| 2026-04-26 21:37 | 29.74504 | -81.21700 | 20285 ft | 341 kts | 180° |
| 2026-04-26 21:37 | 29.72138 | -81.21525 | 19959 ft | 340 kts | 180° |
| 2026-04-26 21:37 | 29.69788 | -81.21347 | 19707 ft | 336 kts | 179° |
| 2026-04-26 21:38 | 29.67477 | -81.21152 | 19516 ft | 333 kts | 179° |
| 2026-04-26 21:38 | 29.65158 | -81.20951 | 19221 ft | 335 kts | 179° |
| 2026-04-26 21:38 | 29.62813 | -81.20749 | 18918 ft | 341 kts | 179° |
| 2026-04-26 21:38 | 29.60435 | -81.20543 | 18574 ft | 344 kts | 179° |
| 2026-04-26 21:39 | 29.58045 | -81.20337 | 18236 ft | 344 kts | 179° |
| 2026-04-26 21:39 | 29.55664 | -81.20131 | 17856 ft | 343 kts | 179° |
| 2026-04-26 21:39 | 29.53286 | -81.19926 | 17492 ft | 341 kts | 179° |
| 2026-04-26 21:39 | 29.50920 | -81.19723 | 17143 ft | 339 kts | 179° |
| 2026-04-26 21:40 | 29.48575 | -81.19521 | 16810 ft | 338 kts | 178° |
| 2026-04-26 21:40 | 29.46238 | -81.19321 | 16492 ft | 336 kts | 178° |
| 2026-04-26 21:40 | 29.43927 | -81.19123 | 16201 ft | 332 kts | 178° |
| 2026-04-26 21:40 | 29.41622 | -81.18927 | 15889 ft | 331 kts | 178° |
| 2026-04-26 21:41 | 29.39361 | -81.18734 | 15578 ft | 329 kts | 178° |
| 2026-04-26 21:41 | 29.37083 | -81.18539 | 15252 ft | 328 kts | 178° |
| 2026-04-26 21:41 | 29.34812 | -81.18346 | 14931 ft | 327 kts | 178° |
| 2026-04-26 21:41 | 29.32551 | -81.18153 | 14612 ft | 325 kts | 178° |
| 2026-04-26 21:42 | 29.30298 | -81.17961 | 14292 ft | 325 kts | 178° |
| 2026-04-26 21:42 | 29.28043 | -81.17766 | 13941 ft | 325 kts | 178° |
| 2026-04-26 21:42 | 29.25791 | -81.17567 | 13616 ft | 324 kts | 177° |
| 2026-04-26 21:42 | 29.23544 | -81.17368 | 13254 ft | 323 kts | 177° |
| 2026-04-26 21:43 | 29.21307 | -81.17171 | 12923 ft | 321 kts | 178° |
| 2026-04-26 21:43 | 29.19080 | -81.16958 | 12614 ft | 321 kts | 174° |
| 2026-04-26 21:43 | 29.16921 | -81.16310 | 12279 ft | 322 kts | 161° |
| 2026-04-26 21:43 | 29.14837 | -81.15374 | 11960 ft | 320 kts | 160° |
| 2026-04-26 21:44 | 29.12773 | -81.14433 | 11645 ft | 319 kts | 160° |
| 2026-04-26 21:44 | 29.10712 | -81.13516 | 11330 ft | 317 kts | 160° |
| 2026-04-26 21:44 | 29.08649 | -81.12622 | 11020 ft | 316 kts | 161° |
| 2026-04-26 21:44 | 29.06595 | -81.11743 | 10714 ft | 315 kts | 161° |
| 2026-04-26 21:45 | 29.04546 | -81.10870 | 10393 ft | 314 kts | 161° |
| 2026-04-26 21:45 | 29.02488 | -81.10055 | 10169 ft | 309 kts | 163° |
| 2026-04-26 21:45 | 29.00468 | -81.09300 | 10022 ft | 302 kts | 163° |
| 2026-04-26 21:45 | 28.98470 | -81.08554 | 9713 ft | 302 kts | 163° |
| 2026-04-26 21:46 | 28.96455 | -81.07927 | 9399 ft | 299 kts | 173° |
| 2026-04-26 21:46 | 28.94399 | -81.07681 | 9108 ft | 296 kts | 178° |
| 2026-04-26 21:46 | 28.92381 | -81.07497 | 8817 ft | 294 kts | 178° |
| 2026-04-26 21:46 | 28.90351 | -81.07292 | 8536 ft | 292 kts | 177° |
| 2026-04-26 21:47 | 28.88347 | -81.07340 | 8207 ft | 286 kts | 198° |
| 2026-04-26 21:47 | 28.86566 | -81.08265 | 7959 ft | 279 kts | 214° |
| 2026-04-26 21:47 | 28.84969 | -81.09508 | 7698 ft | 276 kts | 218° |
| 2026-04-26 21:47 | 28.83434 | -81.10781 | 7561 ft | 270 kts | 218° |
| 2026-04-26 21:48 | 28.81927 | -81.12015 | 7427 ft | 263 kts | 218° |
| 2026-04-26 21:48 | 28.80448 | -81.13206 | 7317 ft | 257 kts | 218° |
| 2026-04-26 21:48 | 28.78996 | -81.14364 | 7201 ft | 252 kts | 217° |
| 2026-04-26 21:48 | 28.77568 | -81.15499 | 6974 ft | 250 kts | 218° |
| 2026-04-26 21:49 | 28.76200 | -81.16726 | 6706 ft | 250 kts | 224° |
| 2026-04-26 21:49 | 28.74900 | -81.18057 | 6406 ft | 252 kts | 225° |
| 2026-04-26 21:49 | 28.73603 | -81.19403 | 6121 ft | 251 kts | 225° |
| 2026-04-26 21:49 | 28.72342 | -81.20700 | 6054 ft | 237 kts | 224° |
| 2026-04-26 21:50 | 28.71150 | -81.21919 | 5956 ft | 223 kts | 224° |
| 2026-04-26 21:50 | 28.70399 | -81.22683 | 5891 ft | 213 kts | 225° |
| 2026-04-26 21:50 | 28.68979 | -81.24120 | 5753 ft | 195 kts | 224° |
| 2026-04-26 21:50 | 28.67978 | -81.25134 | 5482 ft | 191 kts | 224° |
| 2026-04-26 21:51 | 28.66986 | -81.26138 | 5183 ft | 192 kts | 224° |
| 2026-04-26 21:51 | 28.65981 | -81.27153 | 4876 ft | 194 kts | 225° |
| 2026-04-26 21:51 | 28.64946 | -81.28153 | 4481 ft | 200 kts | 214° |
| 2026-04-26 21:51 | 28.63580 | -81.28529 | 4030 ft | 210 kts | 178° |
| 2026-04-26 21:52 | 28.62118 | -81.28391 | 3615 ft | 213 kts | 182° |
| 2026-04-26 21:52 | 28.60626 | -81.28404 | 3177 ft | 216 kts | 182° |
| 2026-04-26 21:52 | 28.59135 | -81.28407 | 2868 ft | 211 kts | 182° |
| 2026-04-26 21:52 | 28.57696 | -81.28395 | 2602 ft | 201 kts | 182° |
| 2026-04-26 21:53 | 28.56343 | -81.28380 | 2345 ft | 194 kts | 183° |
| 2026-04-26 21:53 | 28.55009 | -81.28367 | 2088 ft | 191 kts | 184° |
| 2026-04-26 21:53 | 28.53697 | -81.28353 | 1833 ft | 186 kts | 180° |
| 2026-04-26 21:53 | 28.52427 | -81.28259 | 1609 ft | 182 kts | 178° |
| 2026-04-26 21:54 | 28.51190 | -81.28356 | 1374 ft | 175 kts | 185° |
| 2026-04-26 21:54 | 28.50003 | -81.28332 | 1162 ft | 169 kts | 178° |
| 2026-04-26 21:54 | 28.48857 | -81.28306 | 1000 ft | 159 kts | 183° |
| 2026-04-26 21:54 | 28.47772 | -81.28299 | 776 ft | 151 kts | 186° |
| 2026-04-26 21:55 | 28.46733 | -81.28280 | 566 ft | 148 kts | 179° |
| 2026-04-26 21:55 | 28.45707 | -81.28224 | 390 ft | 145 kts | 186° |
| 2026-04-26 21:55 | 28.44722 | -81.28251 | 204 ft | 138 kts | 183° |
| 2026-04-26 21:55 | 28.43779 | -81.28244 | 98 ft | 128 kts | 185° |
| 2026-04-26 21:56 | 28.43013 | -81.28243 | 96 ft | 92 kts | 179° |
| 2026-04-26 21:56 | 28.42631 | -81.28255 | 97 ft | 22 kts | 197° |
| 2026-04-26 21:56 | 28.42525 | -81.28349 | 95 ft | 20 kts | 246° |
| 2026-04-26 21:56 | 28.42476 | -81.28492 | 95 ft | 19 kts | 251° |
| 2026-04-26 21:57 | 28.42433 | -81.28634 | 99 ft | 19 kts | 252° |
| 2026-04-26 21:57 | 28.42394 | -81.28769 | 102 ft | 18 kts | 253° |
| 2026-04-26 21:57 | 28.42353 | -81.28902 | 102 ft | 17 kts | 252° |
| 2026-04-26 21:57 | 28.42312 | -81.29033 | 95 ft | 20 kts | 250° |
| 2026-04-26 21:58 | 28.42304 | -81.29063 | 94 ft | 3 kts | 255° |
| 2026-04-26 21:58 | 28.42296 | -81.29098 | 96 ft | 7 kts | 258° |
| 2026-04-26 21:58 | 28.42288 | -81.29175 | 93 ft | 13 kts | 264° |
| 2026-04-26 21:58 | 28.42284 | -81.29282 | 93 ft | 14 kts | 266° |
| 2026-04-26 21:59 | 28.42283 | -81.29395 | 94 ft | 16 kts | 271° |
| 2026-04-26 21:59 | 28.42281 | -81.29541 | 93 ft | 21 kts | 270° |
| 2026-04-26 21:59 | 28.42280 | -81.29723 | 93 ft | 25 kts | 269° |
| 2026-04-26 21:59 | 28.42277 | -81.29934 | 93 ft | 28 kts | 269° |
| 2026-04-26 22:00 | 28.42276 | -81.30169 | 93 ft | 31 kts | 269° |
| 2026-04-26 22:00 | 28.42270 | -81.30420 | 95 ft | 33 kts | 267° |
| 2026-04-26 22:00 | 28.42252 | -81.30684 | 95 ft | 34 kts | 266° |
| 2026-04-26 22:00 | 28.42233 | -81.30961 | 95 ft | 36 kts | 268° |
| 2026-04-26 22:01 | 28.42264 | -81.31248 | 94 ft | 37 kts | 275° |
| 2026-04-26 22:01 | 28.42265 | -81.31472 | 95 ft | 26 kts | 265° |
| 2026-04-26 22:01 | 28.42278 | -81.31646 | 97 ft | 16 kts | 309° |
| 2026-04-26 22:01 | 28.42379 | -81.31668 | 99 ft | 14 kts | 1° |
| 2026-04-26 22:02 | 28.42434 | -81.31645 | 98 ft | 13 kts | 27° |
| 2026-04-26 22:02 | 28.42494 | -81.31612 | 95 ft | 1 kts | 13° |
| 2026-04-26 22:02 | 28.42503 | -81.31610 | 95 ft | 3 kts | 9° |
| 2026-04-26 22:02 | 28.42534 | -81.31611 | 95 ft | 5 kts | 353° |
| 2026-04-26 22:03 | 28.42569 | -81.31619 | 96 ft | 5 kts | 347° |
| 2026-04-26 22:03 | 28.42611 | -81.31629 | 95 ft | 7 kts | 351° |
| 2026-04-26 22:03 | 28.42677 | -81.31646 | 97 ft | 12 kts | 345° |
| 2026-04-26 22:03 | 28.42727 | -81.31644 | 94 ft | 6 kts | 31° |
| 2026-04-26 22:04 | 28.42761 | -81.31614 | 96 ft | 6 kts | 40° |
| 2026-04-26 22:04 | 28.42782 | -81.31593 | 93 ft | 0 kts | 40° |
| 2026-04-26 22:04 | 28.42787 | -81.31589 | 93 ft | 2 kts | 40° |
| 2026-04-26 22:04 | 28.42790 | -81.31586 | 93 ft | 1 kts | 40° |
| 2026-04-26 22:06 | 28.42791 | -81.31585 | 93 ft | 0 kts | 40° |